Adelaide, South Australia

7:12 AM ACDT on December 20, 2014 (GMT +1030)
Adelaide International | Change Station
CLOSE
Current Station
Airport
Location: Adelaide,
Elevation: 20 ft
Nearby Weather Stations

Elev 20 ft 34.95 °S, 138.52 °E | Updated 12 minutes ago

Partly Cloudy
Partly Cloudy
59 °F
Feels Like 59 °F
N
2
Wind Variable Wind from East

Today
High -- | Low -- °F
--% Chance of Precip.
Yesterday
High -- | Low -- °F
Precip. -- in
5:57 AM 8:28 PM
Waning Crescent, 6% visible
Pressure 30.09 in
Visibility 6.2 miles
Clouds Few 2300 ft
Dew Point 50 °F
Humidity 72%
Rainfall 0.00 in
Snow Depth Not available.
UV 1 out of 12
Pollen Not available.
Air Quality Not available.
Flu Activity Not available.
METAR YPAD 192030Z 09002KT 9999 FEW023 15/10 Q1019 NOSIG

More Conditions Fewer Conditions

Pressure 30.09 in
Visibility 6.2 miles
Clouds Few 2300 ft
Dew Point 50 °F
Humidity 72%
Rainfall 0.00 in
Snow Depth Not available.
UV 1 out of 12
Pollen Not available.
Air Quality Not available.
Flu Activity Not available.
METAR YPAD 192030Z 09002KT 9999 FEW023 15/10 Q1019 NOSIG

More Conditions Fewer Conditions

10-Day Weather Forecast

Almanac

Astronomy

Dec. 20, 2014 Rise Set
Actual Time
Civil Twilight
Nautical Twilight
Astronomical Twilight
Moon
Length of Visible Light
Length of Day
Tomorrow will be .
, % of the Moon is Illuminated

Today's Extremes

Country Highs Country Lows

Community

WunderPhotos

Upload Photos

1,779,048 photos uploaded!

WunderBlogs® & News

Nearby

Air Quality

  Air Quality AQ Index Pollutant
Not available.

Snow Depth

Station Depth Elevation

Earthquake Activity

City Distance Mag. Time & Date
Minimum magnitude displayed is 2.5.

Coastal Water Temperatures

Place Temperature

Nearby Weather Stations